Time;durP1;ratioP1;P1;durP2;ratioP2;P2;SDS_P1;SDS_P2;PMS_P1;PMS_P2;Temp;Humidity;BMP_temperature;BMP_pressure;BME280_temperature;BME280_humidity;BME280_pressure;Samples;Min_cycle;Max_cycle;Signal;HPM_P1;HPM_P2
2022/06/25 00:01:14;;;;;;;;;2.67;2.67;;;;;21.07;64.64;100531.06;5060846;28;47144;-74
2022/06/25 00:03:40;;;;;;;;;2.33;1.67;;;;;21.13;64.04;100545.47;5079139;28;45454;-74
2022/06/25 00:06:06;;;;;;;;;2.00;2.00;;;;;21.05;64.46;100517.84;5092016;27;45256;-75
2022/06/25 00:08:34;;;;;;;;;3.00;3.00;;;;;21.18;64.48;100537.44;5079451;28;45241;-74
2022/06/25 00:11:00;;;;;;;;;3.33;2.67;;;;;21.15;64.67;100530.66;5078903;28;45299;-74
2022/06/25 00:13:25;;;;;;;;;3.33;3.33;;;;;21.18;64.37;100529.31;5079159;28;45318;-74
2022/06/25 00:15:51;;;;;;;;;4.00;4.00;;;;;21.23;64.32;100533.97;5078899;28;45287;-74
2022/06/25 00:18:16;;;;;;;;;3.67;3.67;;;;;21.21;64.53;100531.53;5079351;28;45328;-74
2022/06/25 00:20:43;;;;;;;;;2.00;2.00;;;;;21.23;64.27;100540.22;5078973;28;45529;-74
2022/06/25 00:23:08;;;;;;;;;2.67;2.67;;;;;21.20;64.29;100527.19;5079009;28;46177;-74
2022/06/25 00:25:34;;;;;;;;;3.00;3.00;;;;;21.22;64.48;100533.16;5078948;28;45434;-74
2022/06/25 00:28:00;;;;;;;;;3.00;3.00;;;;;21.22;64.30;100532.34;5079078;28;45559;-74
2022/06/25 00:30:26;;;;;;;;;2.00;2.00;;;;;21.18;64.34;100526.63;5078868;28;45504;-74
2022/06/25 00:32:51;;;;;;;;;3.00;2.00;;;;;21.12;64.15;100522.22;5060721;28;47984;-74
2022/06/25 00:35:16;;;;;;;;;3.00;3.00;;;;;21.18;64.59;100518.50;5078822;28;45459;-75
2022/06/25 00:37:42;;;;;;;;;3.00;3.00;;;;;21.20;63.99;100527.19;5079053;28;45251;-74
2022/06/25 00:40:08;;;;;;;;;4.00;4.00;;;;;21.23;63.92;100528.56;5079077;28;45417;-74
2022/06/25 00:42:34;;;;;;;;;3.00;2.00;;;;;21.21;63.60;100530.69;5078929;28;45275;-74
2022/06/25 00:44:59;;;;;;;;;3.67;3.67;;;;;21.16;64.19;100524.16;5059933;28;56575;-75
2022/06/25 00:47:24;;;;;;;;;4.33;4.00;;;;;21.22;64.57;100535.84;5078987;28;45218;-74
2022/06/25 00:49:50;;;;;;;;;4.00;4.00;;;;;21.22;64.06;100538.56;5078791;28;45271;-74
2022/06/25 00:52:17;;;;;;;;;4.67;4.00;;;;;21.21;64.73;100528.00;5058293;28;47054;-74
2022/06/25 00:54:58;;;;;;;;;3.00;3.00;;;;;21.25;64.77;100532.66;5070123;28;45386;-74
2022/06/25 00:57:26;;;;;;;;;3.00;3.00;;;;;21.25;64.80;100535.34;5080871;28;45359;-74
2022/06/25 00:59:56;;;;;;;;;3.33;3.00;;;;;21.26;64.85;100538.88;5082203;28;45374;-74
2022/06/25 01:02:21;;;;;;;;;6.00;4.00;;;;;21.21;65.68;100536.09;5083459;28;45239;-74
2022/06/25 01:04:47;;;;;;;;;5.67;4.00;;;;;21.16;65.78;100537.69;5091545;27;45344;-75
2022/06/25 01:07:12;;;;;;;;;4.00;4.00;;;;;21.06;65.52;100524.88;5086168;27;45390;-74
2022/06/25 01:09:40;;;;;;;;;3.00;3.00;;;;;21.02;66.63;100533.72;5082233;28;45239;-74
2022/06/25 01:12:06;;;;;;;;;4.00;3.00;;;;;20.99;66.71;100537.75;5081650;28;45984;-74
2022/06/25 01:14:31;;;;;;;;;3.67;3.67;;;;;21.03;67.28;100543.44;5081792;28;45652;-74
2022/06/25 01:16:56;;;;;;;;;3.00;3.00;;;;;20.99;67.21;100545.00;5081290;28;45861;-74
2022/06/25 01:19:22;;;;;;;;;4.00;4.00;;;;;20.90;67.75;100529.25;5081578;28;45556;-75
2022/06/25 01:21:47;;;;;;;;;4.00;3.00;;;;;20.90;67.81;100547.31;5081700;28;45414;-74
2022/06/25 01:24:13;;;;;;;;;3.00;3.00;;;;;20.84;68.13;100543.72;5063442;28;45408;-74
2022/06/25 01:26:41;;;;;;;;;4.00;4.00;;;;;20.80;68.30;100547.97;5081845;28;45813;-74
2022/06/25 01:29:07;;;;;;;;;2.33;2.33;;;;;20.78;68.63;100548.22;5081642;28;45411;-74
2022/06/25 01:31:33;;;;;;;;;4.00;4.00;;;;;20.68;69.04;100532.69;5081026;28;45498;-75
2022/06/25 01:33:59;;;;;;;;;5.00;5.00;;;;;20.70;69.45;100540.53;5081935;28;45287;-74
2022/06/25 01:36:24;;;;;;;;;4.00;4.00;;;;;20.69;69.55;100537.00;5063432;28;45343;-74
2022/06/25 01:38:50;;;;;;;;;4.67;4.67;;;;;20.60;69.49;100530.41;5081717;28;45235;-74
2022/06/25 01:41:16;;;;;;;;;4.00;4.00;;;;;20.56;69.77;100537.34;5081511;28;45333;-75
2022/06/25 01:43:41;;;;;;;;;3.00;3.00;;;;;20.54;69.77;100545.72;5081254;28;45463;-74
2022/06/25 01:46:08;;;;;;;;;5.00;4.00;;;;;20.55;70.29;100543.81;5081198;28;45418;-73
2022/06/25 01:48:33;;;;;;;;;4.00;4.00;;;;;20.50;70.60;100541.84;5081388;28;45331;-74
2022/06/25 01:50:59;;;;;;;;;5.00;5.00;;;;;20.46;70.85;100538.00;5081177;28;45378;-74
2022/06/25 01:53:24;;;;;;;;;7.00;4.33;;;;;20.43;70.74;100536.63;5081208;28;45361;-73
2022/06/25 01:55:49;;;;;;;;;4.00;4.00;;;;;20.44;71.37;100542.81;5081368;28;45272;-74
2022/06/25 01:58:15;;;;;;;;;5.00;3.33;;;;;20.45;71.11;100530.97;5081241;28;45319;-74
2022/06/25 02:00:41;;;;;;;;;5.33;5.33;;;;;20.51;71.03;100535.41;5060982;28;47942;-74
2022/06/25 02:03:07;;;;;;;;;5.00;5.00;;;;;20.55;70.91;100544.63;5071092;28;45412;-74
2022/06/25 02:08:17;;;;;;;;;5.00;5.00;;;;;20.59;71.11;100544.94;5080541;28;45257;-73
2022/06/25 02:10:44;;;;;;;;;5.33;5.33;;;;;20.59;70.80;100544.16;5080708;28;45413;-74
2022/06/25 02:13:09;;;;;;;;;4.00;4.00;;;;;20.59;70.49;100546.84;5081195;28;45325;-73
2022/06/25 02:15:35;;;;;;;;;3.67;3.67;;;;;20.55;70.51;100541.94;5080555;28;45271;-74
2022/06/25 02:18:01;;;;;;;;;4.00;4.00;;;;;20.50;71.13;100536.44;5062783;28;46217;-74
2022/06/25 02:20:26;;;;;;;;;6.00;5.00;;;;;20.49;70.79;100532.13;5062711;28;47238;-74
2022/06/25 02:22:52;;;;;;;;;4.33;4.33;;;;;20.53;71.58;100548.66;5080751;28;45340;-74
2022/06/25 02:25:17;;;;;;;;;4.67;4.67;;;;;20.49;71.13;100540.22;5080894;28;45396;-74
2022/06/25 02:27:43;;;;;;;;;6.00;5.00;;;;;20.40;71.73;100530.91;5080552;28;45403;-74
2022/06/25 02:30:09;;;;;;;;;7.00;5.00;;;;;20.47;71.35;100541.53;5080657;28;45314;-74
2022/06/25 02:32:34;;;;;;;;;4.33;4.33;;;;;20.46;71.78;100540.72;5080817;28;45324;-74
2022/06/25 02:35:00;;;;;;;;;4.00;4.00;;;;;20.48;71.31;100538.59;5065293;28;45685;-74
2022/06/25 02:37:25;;;;;;;;;5.00;5.00;;;;;20.52;71.01;100545.13;5080921;28;45749;-74
2022/06/25 02:39:50;;;;;;;;;5.33;5.33;;;;;20.53;71.28;100549.44;5065185;28;47387;-74
2022/06/25 02:42:16;;;;;;;;;6.33;4.33;;;;;20.50;70.67;100547.25;5080654;28;49969;-74
2022/06/25 02:44:41;;;;;;;;;5.33;5.00;;;;;20.51;70.46;100540.81;5080703;28;45316;-74
2022/06/25 02:47:06;;;;;;;;;4.00;4.00;;;;;20.53;70.36;100552.16;5062407;28;47381;-75
2022/06/25 02:49:32;;;;;;;;;4.00;4.00;;;;;20.48;70.97;100537.75;5081372;28;46192;-74
2022/06/25 02:51:57;;;;;;;;;6.33;5.67;;;;;20.55;71.11;100551.91;5080514;28;45304;-74
2022/06/25 02:54:23;;;;;;;;;6.00;4.67;;;;;20.54;70.86;100540.31;5070768;28;45312;-75
2022/06/25 02:59:37;;;;;;;;;4.00;4.00;;;;;20.53;70.97;100537.84;5080950;28;45352;-74
2022/06/25 03:02:02;;;;;;;;;6.00;4.33;;;;;20.50;71.13;100532.94;5080503;28;45321;-74
2022/06/25 03:04:28;;;;;;;;;3.33;3.33;;;;;20.56;70.88;100540.03;5067847;27;45306;-74
2022/06/25 03:06:53;;;;;;;;;3.00;3.00;;;;;20.54;70.68;100537.63;5086898;27;45364;-74
2022/06/25 03:09:18;;;;;;;;;4.33;4.33;;;;;20.56;69.92;100540.03;5079808;28;46100;-74
2022/06/25 03:11:44;;;;;;;;;4.00;4.00;;;;;20.61;69.99;100553.63;5068358;28;45318;-74
2022/06/25 03:14:09;;;;;;;;;3.00;3.00;;;;;20.61;70.44;100548.22;5078381;28;45267;-74
2022/06/25 03:16:35;;;;;;;;;3.67;2.00;;;;;20.55;70.62;100541.94;5080663;28;45316;-75
2022/06/25 03:19:01;;;;;;;;;3.00;3.00;;;;;20.58;70.07;100554.13;5061545;28;48148;-74
2022/06/25 03:21:26;;;;;;;;;4.00;3.00;;;;;20.66;70.26;100563.69;5062823;28;45736;-74
2022/06/25 03:23:51;;;;;;;;;4.00;3.67;;;;;20.60;69.97;100545.78;5081465;28;45185;-74
2022/06/25 03:26:17;;;;;;;;;4.00;4.00;;;;;20.59;70.25;100552.25;5080600;28;45263;-74
2022/06/25 03:28:42;;;;;;;;;5.00;3.33;;;;;20.58;69.85;100556.81;5079951;28;48214;-73
2022/06/25 03:31:07;;;;;;;;;5.00;5.00;;;;;20.58;69.68;100554.13;5079293;28;45253;-75
2022/06/25 03:33:33;;;;;;;;;4.67;4.67;;;;;20.55;70.57;100551.91;5080672;28;45139;-74
2022/06/25 03:35:59;;;;;;;;;5.00;4.00;;;;;20.63;70.42;100561.47;5061897;28;46059;-74
2022/06/25 03:38:24;;;;;;;;;6.33;4.67;;;;;20.62;69.93;100562.56;5079746;28;46097;-74
2022/06/25 03:40:50;;;;;;;;;5.33;4.00;;;;;20.57;70.00;100552.50;5069370;28;45356;-74
2022/06/25 03:43:15;;;;;;;;;3.33;3.33;;;;;20.59;70.10;100563.84;5074276;28;45437;-73
2022/06/25 03:45:40;;;;;;;;;4.00;3.00;;;;;20.66;70.26;100563.69;5079924;28;45276;-74
2022/06/25 03:48:06;;;;;;;;;4.33;4.33;;;;;20.57;70.26;100555.19;5080012;28;45718;-75
2022/06/25 03:50:33;;;;;;;;;6.00;3.33;;;;;20.63;70.20;100554.22;5061418;28;45761;-74
2022/06/25 03:52:58;;;;;;;;;4.00;4.00;;;;;20.60;70.00;100564.66;5079916;28;45481;-73
2022/06/25 03:55:24;;;;;;;;;3.00;3.00;;;;;20.61;69.67;100564.44;5078902;28;45343;-75
2022/06/25 03:57:49;;;;;;;;;4.00;4.00;;;;;20.70;70.24;100570.22;5079503;28;45323;-74
2022/06/25 04:00:15;;;;;;;;;5.00;4.33;;;;;20.68;69.51;100575.88;5063977;28;45921;-74
2022/06/25 04:02:40;;;;;;;;;3.00;3.00;;;;;20.60;69.72;100556.56;5079665;28;45380;-75
2022/06/25 04:05:06;;;;;;;;;3.33;3.33;;;;;20.60;70.08;100573.59;5090660;27;45358;-74
2022/06/25 04:07:31;;;;;;;;;5.00;4.33;;;;;20.62;70.06;100581.47;5079285;27;45250;-74
2022/06/25 04:09:57;;;;;;;;;3.33;3.00;;;;;20.61;70.21;100582.50;5078831;28;45629;-73
2022/06/25 04:12:22;;;;;;;;;4.00;3.67;;;;;20.63;69.95;100583.09;5077964;28;45316;-73
2022/06/25 04:14:48;;;;;;;;;4.33;4.33;;;;;20.64;70.06;100590.94;5078382;28;45467;-74
2022/06/25 04:17:13;;;;;;;;;3.33;3.33;;;;;20.59;70.31;100590.84;5077689;28;45401;-73
2022/06/25 04:19:42;;;;;;;;;4.33;4.33;;;;;20.57;70.81;100584.88;5077986;28;45384;-74
2022/06/25 04:22:11;;;;;;;;;3.00;3.00;;;;;20.50;71.12;100585.03;5077763;28;45394;-73
2022/06/25 04:24:38;;;;;;;;;2.33;2.33;;;;;20.55;71.68;100595.09;5077543;28;45668;-74
2022/06/25 04:27:04;;;;;;;;;3.00;3.00;;;;;20.59;71.88;100598.13;5078007;28;45358;-74
2022/06/25 04:29:30;;;;;;;;;3.00;3.00;;;;;20.62;71.74;100593.06;5077630;28;45331;-74
2022/06/25 04:31:56;;;;;;;;;3.33;3.33;;;;;20.60;71.68;100589.78;5061637;28;45387;-74
2022/06/25 04:34:22;;;;;;;;;3.67;3.67;;;;;20.60;71.53;100578.16;5062260;28;47160;-74
2022/06/25 04:36:47;;;;;;;;;2.00;2.00;;;;;20.65;71.14;100589.88;5080167;28;45362;-74
2022/06/25 04:39:13;;;;;;;;;2.00;2.00;;;;;20.69;71.54;100590.19;5052888;28;45425;-75
2022/06/25 04:41:38;;;;;;;;;4.00;4.00;;;;;20.69;71.47;100592.91;5077251;28;45492;-75
2022/06/25 04:44:04;;;;;;;;;2.67;2.67;;;;;20.78;70.90;100599.53;5064194;28;46165;-75
2022/06/25 04:46:29;;;;;;;;;2.00;2.00;;;;;20.74;71.11;100594.88;5082174;28;46174;-75
2022/06/25 04:48:56;;;;;;;;;2.00;2.00;;;;;20.83;71.36;100604.16;5064026;28;45620;-75
2022/06/25 04:51:21;;;;;;;;;2.00;2.00;;;;;20.85;71.25;100604.75;5060656;28;45330;-75
2022/06/25 04:53:56;;;;;;;;;3.00;3.00;;;;;20.87;71.08;100601.81;5076352;28;45255;-75
2022/06/25 04:56:29;;;;;;;;;4.33;4.33;;;;;20.92;70.71;100605.44;5080863;28;45392;-75
2022/06/25 04:58:56;;;;;;;;;3.67;3.67;;;;;20.96;70.58;100611.16;5081145;28;45497;-75
2022/06/25 05:01:22;;;;;;;;;3.00;3.00;;;;;20.98;70.68;100613.63;5081840;28;45307;-75
2022/06/25 05:03:47;;;;;;;;;3.33;3.33;;;;;20.94;70.07;100608.72;5079309;27;47051;-75
2022/06/25 05:06:13;;;;;;;;;3.00;2.00;;;;;20.96;70.21;100607.63;5081232;28;46653;-75
2022/06/25 05:08:40;;;;;;;;;3.00;3.00;;;;;20.98;70.55;100611.72;5082428;28;45428;-75
2022/06/25 05:11:05;;;;;;;;;4.67;4.67;;;;;20.92;70.64;100602.72;5081928;28;45299;-75
2022/06/25 05:13:31;;;;;;;;;3.00;3.00;;;;;21.09;70.22;100630.78;5060981;28;47239;-75
2022/06/25 05:15:56;;;;;;;;;4.67;4.00;;;;;21.07;69.93;100625.63;5081790;28;45358;-76
2022/06/25 05:18:21;;;;;;;;;3.00;3.00;;;;;21.12;70.09;100630.28;5067727;28;45735;-74
2022/06/25 05:20:47;;;;;;;;;4.33;3.33;;;;;21.10;70.05;100624.31;5061911;28;45351;-75
2022/06/25 05:23:13;;;;;;;;;4.33;3.00;;;;;21.13;70.21;100632.75;5081893;28;45387;-74
2022/06/25 05:25:39;;;;;;;;;3.67;3.67;;;;;21.05;69.80;100622.38;5080530;28;46110;-74
2022/06/25 05:28:05;;;;;;;;;4.00;4.00;;;;;21.10;70.13;100629.72;5081558;28;45337;-75
2022/06/25 05:30:31;;;;;;;;;5.00;4.00;;;;;21.21;69.47;100633.38;5081463;28;45438;-74
2022/06/25 05:32:57;;;;;;;;;6.67;6.67;;;;;21.19;69.32;100620.94;5081158;28;45349;-74
2022/06/25 05:35:22;;;;;;;;;5.67;5.33;;;;;21.24;69.19;100625.59;5067458;28;47074;-75
2022/06/25 05:37:48;;;;;;;;;4.33;3.67;;;;;21.31;69.54;100623.53;5094603;28;45239;-75
2022/06/25 05:40:13;;;;;;;;;5.00;5.00;;;;;21.34;69.58;100619.50;5070873;28;45316;-74
2022/06/25 05:42:39;;;;;;;;;3.00;3.00;;;;;21.37;69.15;100626.31;5085133;28;45378;-74
2022/06/25 05:45:05;;;;;;;;;5.00;4.00;;;;;21.40;69.08;100615.81;5084365;28;46020;-74
2022/06/25 05:47:30;;;;;;;;;3.67;3.33;;;;;21.48;69.09;100619.13;5084790;28;45354;-74
2022/06/25 05:49:55;;;;;;;;;3.33;3.33;;;;;21.54;69.32;100627.06;5060690;28;45174;-74
2022/06/25 05:52:22;;;;;;;;;4.00;4.00;;;;;21.56;68.66;100622.25;5082159;28;45413;-74
2022/06/25 05:54:48;;;;;;;;;5.00;4.00;;;;;21.59;68.97;100626.31;5083242;28;45687;-74
2022/06/25 05:57:13;;;;;;;;;3.67;3.67;;;;;21.66;68.85;100632.38;5083692;28;45460;-74
2022/06/25 05:59:38;;;;;;;;;2.33;2.33;;;;;21.64;68.38;100623.66;5084644;28;45485;-74
2022/06/25 06:02:04;;;;;;;;;4.00;4.00;;;;;21.67;68.14;100614.25;5085821;28;45855;-74
2022/06/25 06:04:29;;;;;;;;;3.67;3.00;;;;;21.66;68.26;100613.44;5085681;28;45309;-74
2022/06/25 06:06:54;;;;;;;;;4.00;2.00;;;;;21.74;68.18;100616.75;5089234;28;45332;-75
2022/06/25 06:09:20;;;;;;;;;1.33;1.33;;;;;21.78;68.76;100621.44;5073465;28;45427;-74
2022/06/25 06:11:45;;;;;;;;;1.00;1.00;;;;;21.89;68.10;100641.31;5082091;28;45404;-74
2022/06/25 06:14:10;;;;;;;;;2.00;2.00;;;;;21.93;67.96;100638.91;5083975;28;45314;-73
2022/06/25 06:16:36;;;;;;;;;1.67;1.67;;;;;21.99;68.47;100635.19;5084991;28;45334;-74
2022/06/25 06:19:02;;;;;;;;;3.00;3.00;;;;;22.06;68.17;100616.88;5076460;28;45283;-74
2022/06/25 06:21:27;;;;;;;;;2.00;2.00;;;;;22.13;67.81;100622.09;5076111;28;45278;-74
2022/06/25 06:23:52;;;;;;;;;4.33;3.00;;;;;22.18;67.70;100616.72;5083898;28;46008;-74
2022/06/25 06:26:18;;;;;;;;;1.67;1.67;;;;;22.19;67.42;100620.25;5089103;28;45277;-76
2022/06/25 06:28:43;;;;;;;;;0.33;0.33;;;;;22.29;67.60;100624.94;5091481;28;44969;-75
2022/06/25 06:31:09;;;;;;;;;1.67;1.67;;;;;22.32;66.94;100622.53;5084357;28;45394;-74
2022/06/25 06:33:35;;;;;;;;;2.00;2.00;;;;;22.40;66.84;100626.69;5079504;28;47163;-73
2022/06/25 06:36:01;;;;;;;;;2.67;2.33;;;;;22.45;66.77;100628.63;5079340;28;45813;-74
2022/06/25 06:38:26;;;;;;;;;1.00;1.00;;;;;22.43;66.23;100631.59;5068208;28;45513;-74
2022/06/25 06:40:51;;;;;;;;;2.00;2.00;;;;;22.43;66.18;100628.88;5074892;28;45702;-74
2022/06/25 06:43:17;;;;;;;;;2.33;2.00;;;;;22.43;66.09;100628.88;5079980;28;53291;-73
2022/06/25 06:45:42;;;;;;;;;1.00;1.00;;;;;22.41;66.41;100613.94;5079326;28;45387;-74
2022/06/25 06:48:07;;;;;;;;;1.00;1.00;;;;;22.44;65.36;100629.66;5080695;28;45461;-73
2022/06/25 06:50:33;;;;;;;;;1.00;1.00;;;;;22.39;65.47;100618.81;5080604;28;45565;-74
2022/06/25 06:52:58;;;;;;;;;1.00;1.00;;;;;22.35;65.92;100631.22;5080050;28;46020;-73
2022/06/25 06:55:23;;;;;;;;;2.67;1.33;;;;;22.33;66.15;100632.28;5078190;28;46314;-73
2022/06/25 06:57:48;;;;;;;;;1.00;1.00;;;;;22.33;65.93;100621.47;5061118;28;45473;-74
2022/06/25 07:00:14;;;;;;;;;1.33;0.33;;;;;22.39;65.94;100618.81;5079252;28;52566;-73
2022/06/25 07:02:39;;;;;;;;;1.00;1.00;;;;;22.41;65.71;100616.66;5079465;28;45386;-73
2022/06/25 07:05:05;;;;;;;;;1.00;1.00;;;;;22.51;65.70;100629.47;5084829;27;45393;-73
2022/06/25 07:07:30;;;;;;;;;1.00;1.00;;;;;22.55;64.71;100625.16;5080031;28;45401;-75
2022/06/25 07:09:56;;;;;;;;;1.67;1.67;;;;;22.61;64.83;100626.88;5060500;28;45900;-75
2022/06/25 07:12:21;;;;;;;;;1.00;1.00;;;;;22.64;64.96;100634.50;5068345;28;51660;-75
2022/06/25 07:14:46;;;;;;;;;2.00;2.00;;;;;22.66;65.34;100636.94;5064659;28;45958;-76
2022/06/25 07:17:12;;;;;;;;;0.67;0.67;;;;;22.68;65.47;100632.06;5080297;28;45209;-75
2022/06/25 07:19:37;;;;;;;;;2.00;2.00;;;;;22.70;65.59;100632.63;5080221;28;45280;-74
2022/06/25 07:22:02;;;;;;;;;1.00;1.00;;;;;22.77;64.05;100641.34;5061812;28;47243;-74
2022/06/25 07:24:28;;;;;;;;;2.00;1.00;;;;;22.73;64.32;100640.25;5080107;28;45358;-74
2022/06/25 07:26:53;;;;;;;;;1.33;0.00;;;;;22.73;63.65;100640.25;5079855;28;45306;-75
2022/06/25 07:29:18;;;;;;;;;2.00;2.00;;;;;22.70;64.18;100628.03;5080077;28;45170;-75
2022/06/25 07:31:44;;;;;;;;;1.00;1.00;;;;;22.67;63.24;100635.84;5079614;28;45453;-74
2022/06/25 07:34:09;;;;;;;;;0.33;0.33;;;;;22.76;63.06;100644.31;5080170;28;45320;-75
2022/06/25 07:36:35;;;;;;;;;1.00;1.00;;;;;22.78;63.08;100642.97;5079868;28;45915;-74
2022/06/25 07:39:00;;;;;;;;;1.67;0.67;;;;;22.82;62.22;100646.81;5080016;28;45264;-75
2022/06/25 07:41:26;;;;;;;;;0.67;0.67;;;;;22.82;62.19;100635.16;5064344;28;46993;-74
2022/06/25 07:43:52;;;;;;;;;1.00;1.00;;;;;22.86;62.23;100635.47;5079510;28;45298;-75
2022/06/25 07:46:17;;;;;;;;;1.00;1.00;;;;;22.92;61.30;100646.06;5078975;28;45504;-75
2022/06/25 07:48:42;;;;;;;;;0.00;0.00;;;;;22.95;60.41;100636.59;5079487;28;45383;-73
2022/06/25 07:53:52;;;;;;;;;2.00;1.00;;;;;22.96;59.17;100632.84;5079563;28;45351;-75
2022/06/25 07:56:17;;;;;;;;;3.67;2.00;;;;;22.92;59.38;100629.00;5079664;28;45279;-75
2022/06/25 07:58:42;;;;;;;;;1.00;1.00;;;;;22.92;59.61;100629.81;5079570;28;45414;-75
2022/06/25 08:01:08;;;;;;;;;1.33;1.33;;;;;22.98;59.62;100638.00;5079345;28;46013;-75
2022/06/25 08:03:33;;;;;;;;;1.67;1.33;;;;;23.08;60.13;100651.59;5063746;28;45939;-75
2022/06/25 08:05:59;;;;;;;;;1.00;1.00;;;;;23.11;59.43;100644.84;5081322;27;45484;-75
2022/06/25 08:08:25;;;;;;;;;1.33;1.33;;;;;23.19;59.09;100649.75;5072884;28;45300;-75
2022/06/25 08:10:51;;;;;;;;;1.33;1.00;;;;;23.26;58.81;100663.09;5079246;28;45349;-75
2022/06/25 08:13:17;;;;;;;;;0.67;0.00;;;;;23.28;59.04;100652.78;5079533;28;45292;-75
2022/06/25 08:15:42;;;;;;;;;2.00;2.00;;;;;23.32;58.16;100657.41;5079137;28;45530;-75
2022/06/25 08:18:07;;;;;;;;;1.00;1.00;;;;;23.28;58.27;100642.78;5079386;28;45276;-75
2022/06/25 08:20:33;;;;;;;;;0.33;0.33;;;;;23.37;57.64;100647.75;5079098;28;45881;-76
2022/06/25 08:22:58;;;;;;;;;2.00;2.00;;;;;23.39;56.82;100645.56;5061188;28;45434;-75
2022/06/25 08:25:24;;;;;;;;;1.67;1.67;;;;;23.51;57.29;100654.31;5079404;28;45794;-75
2022/06/25 08:27:52;;;;;;;;;1.00;1.00;;;;;23.54;56.75;100656.50;5078991;28;45363;-76
2022/06/25 08:30:21;;;;;;;;;1.00;1.00;;;;;23.70;56.97;100659.25;5078957;28;45405;-75
2022/06/25 08:32:47;;;;;;;;;2.00;2.00;;;;;23.81;56.31;100662.84;5077945;28;45355;-75
2022/06/25 08:35:14;;;;;;;;;1.00;1.00;;;;;23.85;55.75;100663.94;5079188;28;45228;-74
2022/06/25 08:37:47;;;;;;;;;0.00;0.00;;;;;23.85;54.86;100663.94;5079169;28;45573;-73
2022/06/25 08:40:15;;;;;;;;;0.00;0.00;;;;;23.82;55.23;100665.28;5060677;28;47777;-73
2022/06/25 08:42:41;;;;;;;;;0.00;0.00;;;;;23.71;54.08;100669.06;5067581;28;45338;-74
2022/06/25 08:45:07;;;;;;;;;1.00;1.00;;;;;23.67;54.28;100681.50;5074725;28;45268;-74
2022/06/25 08:47:33;;;;;;;;;0.00;0.00;;;;;23.60;53.95;100667.34;5069494;28;47842;-74
2022/06/25 08:49:59;;;;;;;;;4.00;1.00;;;;;23.48;53.87;100679.25;5071920;28;45327;-73
2022/06/25 08:52:27;;;;;;;;;2.00;2.00;;;;;23.35;54.64;100672.38;5060004;28;45368;-71
2022/06/25 08:54:54;;;;;;;;;2.00;2.00;;;;;23.31;54.49;100671.25;5078885;28;45249;-71
2022/06/25 08:57:19;;;;;;;;;3.67;2.33;;;;;23.17;54.34;100670.91;5078440;28;45461;-72
2022/06/25 08:59:45;;;;;;;;;1.33;0.33;;;;;23.06;55.12;100686.28;5078625;28;46029;-72
2022/06/25 09:02:10;;;;;;;;;1.00;1.00;;;;;23.04;56.17;100685.69;5078494;28;45161;-72
2022/06/25 09:04:36;;;;;;;;;0.67;0.67;;;;;23.02;55.99;100691.38;5085605;27;45291;-72
2022/06/25 09:07:11;;;;;;;;;2.33;2.33;;;;;23.02;55.66;100687.88;5084174;27;45587;-73
2022/06/25 09:09:37;;;;;;;;;1.00;1.00;;;;;22.98;56.16;100684.06;5078667;28;45374;-73
2022/06/25 09:12:08;;;;;;;;;2.00;2.00;;;;;22.99;55.35;100674.84;5078562;28;45388;-72
2022/06/25 09:14:35;;;;;;;;;2.00;2.00;;;;;23.05;55.99;100685.44;5065264;28;45378;-73
2022/06/25 09:17:14;;;;;;;;;2.00;0.67;;;;;23.08;55.52;100690.34;5078828;28;45260;-72
2022/06/25 09:19:51;;;;;;;;;2.33;2.33;;;;;23.06;54.54;100681.69;5068318;28;45943;-72
2022/06/25 09:22:19;;;;;;;;;1.67;1.33;;;;;23.07;55.41;100679.75;5081894;28;45335;-74
2022/06/25 09:24:51;;;;;;;;;1.33;1.33;;;;;23.17;54.67;100673.63;5078175;28;45263;-74
2022/06/25 09:27:21;;;;;;;;;2.00;1.33;;;;;23.15;54.50;100670.34;5080205;28;45268;-74
2022/06/25 09:29:49;;;;;;;;;2.00;1.67;;;;;23.20;54.90;100668.47;5063322;28;48428;-75
2022/06/25 09:32:14;;;;;;;;;1.00;1.00;;;;;23.28;54.92;100669.88;5063094;28;45374;-75
2022/06/25 09:34:40;;;;;;;;;1.00;1.00;;;;;23.26;53.68;100671.22;5081691;28;45312;-74
2022/06/25 09:37:26;;;;;;;;;3.00;3.00;;;;;23.23;52.57;100655.47;5081717;28;45494;-76
2022/06/25 09:39:54;;;;;;;;;2.67;2.67;;;;;23.30;54.01;100656.06;5081697;28;45396;-74
2022/06/25 09:42:23;;;;;;;;;2.00;2.00;;;;;23.33;52.82;100663.66;5081412;28;45414;-73
2022/06/25 09:44:56;;;;;;;;;2.00;1.67;;;;;23.33;51.81;100659.06;5065455;28;45413;-74
2022/06/25 09:47:23;;;;;;;;;2.00;1.33;;;;;23.36;52.43;100662.31;5059293;28;46714;-75
2022/06/25 09:49:48;;;;;;;;;1.00;1.00;;;;;23.47;52.38;100679.50;5062575;28;48233;-75
2022/06/25 09:52:14;;;;;;;;;2.67;2.67;;;;;23.47;52.85;100680.34;5081154;28;45347;-73
2022/06/25 09:54:39;;;;;;;;;3.67;3.67;;;;;23.45;52.67;100675.16;5080978;28;45335;-74
2022/06/25 09:57:05;;;;;;;;;2.67;1.00;;;;;23.44;52.04;100678.16;5079936;28;45411;-72
2022/06/25 09:59:32;;;;;;;;;2.33;1.00;;;;;23.39;52.06;100680.81;5080613;28;46032;-75
2022/06/25 10:02:03;;;;;;;;;3.67;1.33;;;;;23.37;52.31;100680.28;5080934;28;45320;-75
2022/06/25 10:04:30;;;;;;;;;1.00;1.00;;;;;23.35;52.10;100687.81;5082643;27;45357;-74
2022/06/25 10:06:58;;;;;;;;;1.00;1.00;;;;;23.25;51.96;100685.88;5081160;28;45459;-74
2022/06/25 10:09:25;;;;;;;;;2.00;2.00;;;;;23.09;52.23;100672.19;5081009;28;45308;-73
2022/06/25 10:11:51;;;;;;;;;2.00;2.00;;;;;23.10;52.83;100694.72;5080949;28;45330;-74
2022/06/25 10:14:17;;;;;;;;;2.33;2.33;;;;;22.95;52.02;100696.22;5081137;28;45418;-74
2022/06/25 10:16:43;;;;;;;;;2.00;2.00;;;;;22.83;52.23;100699.09;5080778;28;45476;-73
2022/06/25 10:19:10;;;;;;;;;3.67;3.67;;;;;22.74;53.05;100706.06;5081028;28;45400;-73
2022/06/25 10:21:35;;;;;;;;;3.00;2.33;;;;;22.69;53.66;100704.13;5080647;28;45349;-73
2022/06/25 10:24:04;;;;;;;;;3.00;2.00;;;;;22.52;54.23;100704.22;5081054;28;45272;-74
2022/06/25 10:26:30;;;;;;;;;5.00;3.33;;;;;22.44;55.07;100709.00;5080491;28;45497;-74
2022/06/25 10:28:56;;;;;;;;;2.00;2.00;;;;;22.34;54.98;100703.50;5078561;28;47493;-75
2022/06/25 10:31:21;;;;;;;;;3.33;1.67;;;;;22.35;55.33;100718.66;5062250;28;45314;-74
2022/06/25 10:34:02;;;;;;;;;2.67;2.67;;;;;22.25;55.78;100699.59;5062789;28;45320;-73
2022/06/25 10:36:45;;;;;;;;;4.00;2.33;;;;;22.20;55.61;100708.47;5080540;28;45586;-73
2022/06/25 10:39:23;;;;;;;;;3.00;2.00;;;;;22.22;56.54;100730.69;5080582;28;45947;-73
2022/06/25 10:45:03;;;;;;;;;4.00;4.00;;;;;22.13;57.41;100726.81;5080296;28;45402;-73
2022/06/25 10:47:43;;;;;;;;;2.00;2.00;;;;;22.02;57.78;100709.63;5061471;28;46514;-75
2022/06/25 10:50:29;;;;;;;;;3.00;3.00;;;;;22.05;58.65;100712.66;5079396;28;45371;-72
2022/06/25 10:53:01;;;;;;;;;5.00;4.33;;;;;22.06;59.97;100716.97;5080322;28;45491;-72
2022/06/25 10:55:26;;;;;;;;;4.00;4.00;;;;;22.04;61.23;100721.84;5080599;28;45300;-72
2022/06/25 10:57:51;;;;;;;;;4.00;4.00;;;;;22.05;62.18;100722.66;5080222;28;45548;-72
2022/06/25 11:00:17;;;;;;;;;3.00;3.00;;;;;22.05;62.96;100714.53;5080044;28;46705;-72
2022/06/25 11:02:42;;;;;;;;;3.67;3.00;;;;;22.03;63.02;100720.19;5079996;28;45409;-71
2022/06/25 11:05:18;;;;;;;;;2.33;2.33;;;;;22.03;63.97;100722.91;5088939;27;45342;-72
2022/06/25 11:07:43;;;;;;;;;3.00;3.00;;;;;21.96;63.78;100735.81;5061898;28;46274;-73
2022/06/25 11:10:09;;;;;;;;;2.67;2.67;;;;;21.91;63.57;100733.03;5080018;28;46364;-71
2022/06/25 11:12:35;;;;;;;;;3.00;3.00;;;;;21.75;64.82;100723.84;5074757;27;45297;-72
2022/06/25 11:15:03;;;;;;;;;4.00;4.00;;;;;21.82;64.86;100744.28;5079366;28;45355;-72
2022/06/25 11:17:29;;;;;;;;;3.00;3.00;;;;;21.82;64.39;100738.06;5079936;28;45461;-71
2022/06/25 11:20:05;;;;;;;;;3.00;3.00;;;;;21.82;64.68;100735.38;5079887;28;45377;-71
2022/06/25 11:22:30;;;;;;;;;2.33;2.33;;;;;21.86;64.61;100735.66;5078449;28;45294;-73
2022/06/25 11:30:25;;;;;;;;;3.00;3.00;;;;;21.86;65.33;100719.44;5079541;28;45273;-72
2022/06/25 11:32:51;;;;;;;;;7.00;5.00;;;;;21.78;65.10;100715.28;5078896;28;45291;-73
2022/06/25 11:35:16;;;;;;;;;3.67;3.67;;;;;21.79;65.41;100727.75;5078795;28;45258;-72
2022/06/25 11:37:41;;;;;;;;;4.33;2.00;;;;;21.73;65.71;100734.13;5060894;28;47720;-72